Time;durP1;ratioP1;P1;durP2;ratioP2;P2;SDS_P1;SDS_P2;PMS_P1;PMS_P2;Temp;Humidity;BMP_temperature;BMP_pressure;BME280_temperature;BME280_humidity;BME280_pressure;Samples;Min_cycle;Max_cycle;Signal;HPM_P1;HPM_P2
2022/07/19 00:00:21;;;;;;;0.00;0.00;;;19.30;99.90;226.50;231333.00;;;;5071895;28;20241;-71
2022/07/19 00:02:49;;;;;;;0.00;0.00;;;19.30;99.90;226.50;231333.00;;;;5071616;28;20208;-72
2022/07/19 00:05:17;;;;;;;0.00;0.00;;;19.40;99.90;226.50;231333.00;;;;5071720;28;20606;-71
2022/07/19 00:07:46;;;;;;;0.00;0.00;;;19.40;99.90;226.50;231333.00;;;;5071732;28;20669;-71
2022/07/19 00:10:18;;;;;;;0.00;0.00;;;19.40;99.90;226.50;231333.00;;;;5071687;28;20260;-71
2022/07/19 00:12:46;;;;;;;0.00;0.00;;;19.40;99.90;226.50;231333.00;;;;5071687;28;20520;-70
2022/07/19 00:15:17;;;;;;;0.00;0.00;;;19.50;99.70;226.50;231333.00;;;;5071471;28;20189;-70
2022/07/19 00:17:48;;;;;;;0.00;0.00;;;19.40;99.60;226.50;231333.00;;;;5071233;28;20202;-70
2022/07/19 00:20:19;;;;;;;0.00;0.00;;;19.50;99.70;226.50;231333.00;;;;5071489;28;20701;-71
2022/07/19 00:22:48;;;;;;;0.00;0.00;;;19.40;99.00;226.50;231333.00;;;;5071277;28;20205;-71
2022/07/19 00:25:16;;;;;;;0.00;0.00;;;19.40;99.10;226.50;231333.00;;;;5071473;28;20193;-71
2022/07/19 00:27:44;;;;;;;0.00;0.00;;;19.40;99.10;226.50;231333.00;;;;5053294;28;20189;-71
2022/07/19 00:30:13;;;;;;;0.00;0.00;;;19.30;99.20;226.50;231333.00;;;;5071310;28;20209;-71
2022/07/19 00:32:42;;;;;;;0.00;0.00;;;19.40;99.30;226.50;231333.00;;;;5071199;28;20194;-70
2022/07/19 00:35:10;;;;;;;0.00;0.00;;;19.40;99.40;226.50;231333.00;;;;5071320;28;20198;-71
2022/07/19 00:37:38;;;;;;;0.00;0.00;;;19.30;99.60;226.50;231333.00;;;;5071350;28;20189;-71
2022/07/19 00:40:15;;;;;;;0.00;0.00;;;19.20;99.80;226.50;231333.00;;;;5071765;28;20210;-70
2022/07/19 00:42:43;;;;;;;0.00;0.00;;;19.30;99.90;226.50;231333.00;;;;5070847;28;20676;-71
2022/07/19 00:45:12;;;;;;;0.00;0.00;;;19.20;99.90;226.50;231333.00;;;;5071905;28;20612;-70
2022/07/19 00:47:41;;;;;;;0.00;0.00;;;19.20;99.90;226.50;231333.00;;;;5071117;28;20202;-70
2022/07/19 00:50:18;;;;;;;0.00;0.00;;;19.20;99.90;226.50;231333.00;;;;5071752;28;20697;-71
2022/07/19 00:52:52;;;;;;;0.00;0.00;;;19.10;99.90;226.50;231333.00;;;;5086602;28;20205;-71
2022/07/19 00:55:23;;;;;;;0.00;0.00;;;19.10;99.90;226.50;231333.00;;;;5071113;28;20200;-71
2022/07/19 00:57:51;;;;;;;0.00;0.00;;;19.10;99.90;226.50;231333.00;;;;5070884;28;20212;-71
2022/07/19 01:00:19;;;;;;;0.00;0.00;;;19.00;99.90;226.50;231333.00;;;;5071292;28;20217;-71
2022/07/19 01:02:49;;;;;;;0.00;0.00;;;18.90;99.90;226.50;231333.00;;;;5070536;28;20240;-71
2022/07/19 01:05:17;;;;;;;0.00;0.00;;;18.90;99.90;226.50;231333.00;;;;5070888;28;20197;-70
2022/07/19 01:07:46;;;;;;;0.00;0.00;;;19.00;99.90;226.50;231333.00;;;;5070895;28;20197;-70
2022/07/19 01:10:16;;;;;;;0.00;0.00;;;19.00;99.90;226.50;231333.00;;;;5071430;28;20213;-71
2022/07/19 01:12:45;;;;;;;0.00;0.00;;;19.00;99.90;226.50;231333.00;;;;5070783;28;20680;-71
2022/07/19 01:15:16;;;;;;;0.00;0.00;;;19.00;99.90;226.50;231333.00;;;;5070876;28;20193;-71
2022/07/19 01:17:44;;;;;;;0.00;0.00;;;18.90;99.90;226.50;231333.00;;;;5070738;28;20205;-70
2022/07/19 01:20:14;;;;;;;0.00;0.00;;;18.80;99.90;226.50;231333.00;;;;5071044;28;20221;-71
2022/07/19 01:22:45;;;;;;;0.00;0.00;;;18.80;99.90;226.50;231333.00;;;;5070740;28;20583;-71
2022/07/19 01:25:15;;;;;;;0.00;0.00;;;18.80;99.90;226.50;231333.00;;;;5070858;28;20259;-71
2022/07/19 01:27:45;;;;;;;0.00;0.00;;;18.70;99.90;226.50;231333.00;;;;5070687;28;20478;-70
2022/07/19 01:30:14;;;;;;;0.00;0.00;;;18.70;99.90;226.50;231333.00;;;;5064982;28;20228;-70
2022/07/19 01:32:42;;;;;;;0.00;0.00;;;18.70;99.90;226.50;231333.00;;;;5070718;28;20197;-71
2022/07/19 01:35:11;;;;;;;0.00;0.00;;;18.60;99.90;226.50;231333.00;;;;5066077;28;20255;-70
2022/07/19 01:37:40;;;;;;;0.00;0.00;;;18.70;99.90;226.50;231333.00;;;;5069407;28;20657;-71
2022/07/19 01:40:13;;;;;;;0.00;0.00;;;18.70;99.90;226.50;231333.00;;;;5054929;28;20230;-71
2022/07/19 01:42:42;;;;;;;0.00;0.00;;;18.70;99.90;226.50;231333.00;;;;5062973;28;20205;-71
2022/07/19 01:45:12;;;;;;;0.00;0.00;;;18.60;99.90;226.50;231333.00;;;;5070676;28;20205;-71
2022/07/19 01:47:41;;;;;;;0.00;0.00;;;18.60;99.90;226.50;231333.00;;;;5070640;28;20574;-70
2022/07/19 01:50:14;;;;;;;0.10;0.10;;;18.60;99.90;226.50;231333.00;;;;5070950;28;20218;-71
2022/07/19 01:52:42;;;;;;;0.00;0.00;;;18.50;99.90;226.50;231333.00;;;;5050656;28;20195;-72
2022/07/19 01:55:20;;;;;;;0.00;0.00;;;18.30;99.90;226.50;231333.00;;;;5068541;28;20204;-70
2022/07/19 01:57:48;;;;;;;0.00;0.00;;;18.20;99.90;226.50;231333.00;;;;5074102;28;20190;-71
2022/07/19 02:00:16;;;;;;;0.00;0.00;;;18.10;99.90;226.50;231333.00;;;;5074120;28;20217;-71
2022/07/19 02:02:45;;;;;;;0.10;0.10;;;18.10;99.90;226.50;231333.00;;;;5054010;28;20228;-70
2022/07/19 02:05:13;;;;;;;0.10;0.10;;;18.10;99.90;226.50;231333.00;;;;5067715;28;20190;-71
2022/07/19 02:07:42;;;;;;;0.00;0.00;;;18.10;99.90;226.50;231333.00;;;;5073809;28;20243;-71
2022/07/19 02:10:11;;;;;;;0.00;0.00;;;17.80;99.90;226.50;231333.00;;;;5073879;28;20296;-71
2022/07/19 02:12:40;;;;;;;0.00;0.00;;;17.70;99.90;226.50;231333.00;;;;5073881;28;20205;-71
2022/07/19 02:15:10;;;;;;;0.00;0.00;;;17.50;99.90;226.50;231333.00;;;;5073732;28;20198;-71
2022/07/19 02:17:38;;;;;;;0.00;0.00;;;17.70;99.90;226.50;231333.00;;;;5073376;28;20204;-71
2022/07/19 02:20:08;;;;;;;0.00;0.00;;;17.70;99.90;226.50;231333.00;;;;5064544;28;20244;-70
2022/07/19 02:22:36;;;;;;;0.00;0.00;;;17.70;99.90;226.50;231333.00;;;;5073437;28;20305;-71
2022/07/19 02:25:05;;;;;;;0.00;0.00;;;17.80;99.90;226.50;231333.00;;;;5065984;28;20197;-70
2022/07/19 02:27:33;;;;;;;0.00;0.00;;;17.70;99.90;226.50;231333.00;;;;5067907;28;20213;-71
2022/07/19 02:30:03;;;;;;;0.00;0.00;;;17.70;99.90;226.50;231333.00;;;;5073139;28;20612;-72
2022/07/19 02:32:32;;;;;;;0.00;0.00;;;17.80;99.90;226.50;231333.00;;;;5073592;28;20193;-71
2022/07/19 02:35:00;;;;;;;0.00;0.00;;;17.70;99.90;226.50;231333.00;;;;5073327;28;20197;-72
2022/07/19 02:37:28;;;;;;;0.00;0.00;;;17.70;99.90;226.50;231333.00;;;;5073256;28;20665;-71
2022/07/19 02:39:56;;;;;;;0.00;0.00;;;17.70;99.90;226.50;231333.00;;;;5073085;28;20243;-71
2022/07/19 02:42:23;;;;;;;0.00;0.00;;;17.60;99.90;226.50;231333.00;;;;5052270;28;20208;-71
2022/07/19 02:44:52;;;;;;;0.00;0.00;;;17.60;99.90;226.50;231333.00;;;;5062614;28;20212;-71
2022/07/19 02:47:21;;;;;;;0.00;0.00;;;17.60;99.90;226.50;231333.00;;;;5073108;28;20273;-71
2022/07/19 02:49:49;;;;;;;0.00;0.00;;;17.70;99.90;226.50;231333.00;;;;5072910;28;20564;-71
2022/07/19 02:52:17;;;;;;;0.00;0.00;;;17.60;99.90;226.50;231333.00;;;;5074000;28;20194;-71
2022/07/19 02:54:45;;;;;;;0.00;0.00;;;17.70;99.90;226.50;231333.00;;;;5072444;28;20200;-71
2022/07/19 02:57:13;;;;;;;0.00;0.00;;;17.60;99.90;226.50;231333.00;;;;5073031;28;20665;-71
2022/07/19 02:59:41;;;;;;;0.00;0.00;;;17.60;99.90;226.50;231333.00;;;;5072737;28;20245;-71
2022/07/19 03:02:09;;;;;;;0.03;0.03;;;17.40;99.90;226.50;231333.00;;;;5072751;28;20204;-70
2022/07/19 03:04:39;;;;;;;0.00;0.00;;;17.40;99.90;226.50;231333.00;;;;5072318;28;20291;-71
2022/07/19 03:07:07;;;;;;;0.00;0.00;;;17.30;99.90;226.50;231333.00;;;;5072954;28;20193;-71
2022/07/19 03:09:35;;;;;;;0.00;0.00;;;17.40;99.90;226.50;231333.00;;;;5072514;28;20214;-72
2022/07/19 03:12:04;;;;;;;0.00;0.00;;;17.40;99.90;226.50;231333.00;;;;5072971;28;20657;-71
2022/07/19 03:14:32;;;;;;;0.00;0.00;;;17.50;99.90;226.50;231333.00;;;;5072389;28;20255;-71
2022/07/19 03:17:00;;;;;;;0.00;0.00;;;17.50;99.90;226.50;231333.00;;;;5072570;28;20199;-72
2022/07/19 03:19:29;;;;;;;0.00;0.00;;;17.60;99.90;226.50;231333.00;;;;5072486;28;20648;-71
2022/07/19 03:21:59;;;;;;;0.00;0.00;;;17.60;99.90;226.50;231333.00;;;;5074486;28;20206;-71
2022/07/19 03:24:27;;;;;;;0.00;0.00;;;17.50;99.90;226.50;231333.00;;;;5059616;28;20565;-72
2022/07/19 03:26:55;;;;;;;0.00;0.00;;;17.50;99.90;226.50;231333.00;;;;5072642;28;20193;-72
2022/07/19 03:29:23;;;;;;;0.10;0.10;;;17.50;99.90;226.50;231333.00;;;;5063394;28;20214;-71
2022/07/19 03:31:57;;;;;;;0.00;0.00;;;17.40;99.90;226.50;231333.00;;;;5069390;28;20241;-70
2022/07/19 03:34:25;;;;;;;0.00;0.00;;;17.40;99.90;226.50;231333.00;;;;5072786;28;20201;-71
2022/07/19 03:36:53;;;;;;;0.00;0.00;;;17.30;99.90;226.50;231333.00;;;;5072691;28;20193;-70
2022/07/19 03:39:23;;;;;;;0.00;0.00;;;17.30;99.90;226.50;231333.00;;;;5072594;28;20201;-71
2022/07/19 03:41:51;;;;;;;0.00;0.00;;;17.30;99.90;226.50;231333.00;;;;5071849;28;20222;-69
2022/07/19 03:44:26;;;;;;;0.00;0.00;;;17.30;99.90;226.50;231333.00;;;;5072733;28;20197;-70
2022/07/19 03:46:54;;;;;;;0.00;0.00;;;17.40;99.90;226.50;231333.00;;;;5072129;28;20186;-70
2022/07/19 03:49:22;;;;;;;0.00;0.00;;;17.30;99.90;226.50;231333.00;;;;5072212;28;20247;-70
2022/07/19 03:51:50;;;;;;;0.00;0.00;;;17.20;99.90;226.50;231333.00;;;;5072238;28;20189;-71
2022/07/19 03:54:18;;;;;;;0.00;0.00;;;17.10;99.90;226.50;231333.00;;;;5072553;28;20264;-71
2022/07/19 03:56:48;;;;;;;0.05;0.05;;;17.00;99.90;226.50;231333.00;;;;5071651;28;20673;-70
2022/07/19 03:59:16;;;;;;;0.00;0.00;;;17.10;99.90;226.50;231333.00;;;;5072159;28;20213;-71
2022/07/19 04:01:44;;;;;;;0.00;0.00;;;17.10;99.90;226.50;231333.00;;;;5067957;28;20210;-71
2022/07/19 04:04:12;;;;;;;0.00;0.00;;;17.10;99.90;226.50;231333.00;;;;5069329;28;20612;-71
2022/07/19 04:06:40;;;;;;;0.00;0.00;;;17.20;99.90;226.50;231333.00;;;;5071957;28;20189;-71
2022/07/19 04:09:09;;;;;;;0.00;0.00;;;17.30;99.90;226.50;231333.00;;;;5071047;28;20209;-73
2022/07/19 04:11:37;;;;;;;0.00;0.00;;;17.20;99.90;226.50;231333.00;;;;5070230;28;20695;-73
2022/07/19 04:14:07;;;;;;;0.00;0.00;;;17.30;99.90;226.50;231333.00;;;;5071007;28;20189;-71
2022/07/19 04:16:35;;;;;;;0.00;0.00;;;17.30;99.90;226.50;231333.00;;;;5071311;28;20599;-72
2022/07/19 04:19:03;;;;;;;0.00;0.00;;;17.30;99.90;226.50;231333.00;;;;5072085;28;20209;-71
2022/07/19 04:21:31;;;;;;;0.05;0.05;;;17.30;99.90;226.50;231333.00;;;;5073203;28;20222;-72
2022/07/19 04:24:00;;;;;;;0.00;0.00;;;17.30;99.90;226.50;231333.00;;;;5072858;28;20433;-70
2022/07/19 04:26:37;;;;;;;0.00;0.00;;;17.30;99.90;226.50;231333.00;;;;5071900;28;20654;-71
2022/07/19 04:29:06;;;;;;;0.00;0.00;;;17.40;99.90;226.50;231333.00;;;;5068727;28;20217;-72
2022/07/19 04:31:34;;;;;;;0.00;0.00;;;17.40;99.90;226.50;231333.00;;;;5066055;28;20619;-73
2022/07/19 04:34:03;;;;;;;0.00;0.00;;;17.40;99.90;226.50;231333.00;;;;5071214;28;20194;-71
2022/07/19 04:36:31;;;;;;;0.00;0.00;;;17.50;99.90;226.50;231333.00;;;;5065777;28;20205;-72
2022/07/19 04:38:59;;;;;;;0.00;0.00;;;17.60;99.90;226.50;231333.00;;;;5066944;28;20704;-72
2022/07/19 04:41:27;;;;;;;0.00;0.00;;;17.70;99.90;226.50;231333.00;;;;5069590;28;20228;-72
2022/07/19 04:43:55;;;;;;;0.00;0.00;;;17.80;99.90;226.50;231333.00;;;;5071331;28;20194;-70
2022/07/19 04:46:25;;;;;;;0.00;0.00;;;17.80;99.90;226.50;231333.00;;;;5065370;28;20209;-70
2022/07/19 04:48:53;;;;;;;0.00;0.00;;;17.90;99.90;226.50;231333.00;;;;5081930;28;20245;-70
2022/07/19 04:51:21;;;;;;;0.00;0.00;;;17.90;99.90;226.50;231333.00;;;;5090181;28;20563;-70
2022/07/19 04:53:49;;;;;;;0.00;0.00;;;17.90;99.90;226.50;231333.00;;;;5070575;28;20205;-70
2022/07/19 04:56:17;;;;;;;0.00;0.00;;;18.00;99.90;226.50;231333.00;;;;5071262;28;20193;-70
2022/07/19 04:58:45;;;;;;;0.00;0.00;;;18.00;99.90;226.50;231333.00;;;;5074824;28;20206;-70
2022/07/19 05:01:12;;;;;;;0.00;0.00;;;18.10;99.90;226.50;231333.00;;;;5087301;28;20216;-70
2022/07/19 05:03:42;;;;;;;0.00;0.00;;;18.20;99.90;226.50;231333.00;;;;5091477;28;20228;-70
2022/07/19 05:06:10;;;;;;;0.00;0.00;;;18.30;99.90;226.50;231333.00;;;;5091213;28;20185;-71
2022/07/19 05:08:38;;;;;;;0.00;0.00;;;18.40;99.90;226.50;231333.00;;;;5091012;28;20196;-71
2022/07/19 05:11:06;;;;;;;0.00;0.00;;;18.40;99.90;226.50;231333.00;;;;5091368;28;20212;-70
2022/07/19 05:13:34;;;;;;;0.10;0.10;;;18.50;99.90;226.50;231333.00;;;;5085142;28;20215;-71
2022/07/19 05:16:03;;;;;;;0.10;0.10;;;18.60;99.90;226.50;231333.00;;;;5091201;28;20251;-71
2022/07/19 05:18:31;;;;;;;0.00;0.00;;;18.70;99.90;226.50;231333.00;;;;5090631;28;20193;-70
2022/07/19 05:21:00;;;;;;;0.00;0.00;;;18.70;99.90;226.50;231333.00;;;;5090821;28;20221;-70
2022/07/19 05:23:28;;;;;;;0.00;0.00;;;18.80;99.90;226.50;231333.00;;;;5090964;28;20189;-72
2022/07/19 05:25:56;;;;;;;0.00;0.00;;;18.80;99.90;226.50;231333.00;;;;5073022;28;20204;-72
2022/07/19 05:28:24;;;;;;;0.00;0.00;;;19.00;99.90;226.50;231333.00;;;;5092837;28;20181;-72
2022/07/19 05:30:52;;;;;;;0.00;0.00;;;19.10;99.90;226.50;231333.00;;;;5094791;28;20227;-72
2022/07/19 05:33:20;;;;;;;0.00;0.00;;;19.10;99.90;226.50;231333.00;;;;5094097;28;20699;-71
2022/07/19 05:35:48;;;;;;;0.00;0.00;;;19.20;99.90;226.50;231333.00;;;;5094876;28;20507;-71
2022/07/19 05:38:17;;;;;;;0.00;0.00;;;19.30;99.90;226.50;231333.00;;;;5091386;28;20214;-71
2022/07/19 05:40:46;;;;;;;0.00;0.00;;;19.40;99.90;226.50;231333.00;;;;5074332;28;20804;-72
2022/07/19 05:43:15;;;;;;;0.00;0.00;;;19.60;99.90;226.50;231333.00;;;;5085613;28;20220;-70
2022/07/19 05:45:44;;;;;;;0.00;0.00;;;19.70;99.90;226.50;231333.00;;;;5074623;28;20243;-71
2022/07/19 05:48:12;;;;;;;0.00;0.00;;;19.80;99.90;226.50;231333.00;;;;5074681;28;20276;-70
2022/07/19 05:50:40;;;;;;;0.00;0.00;;;19.90;99.90;226.50;231333.00;;;;5084932;28;20246;-71
2022/07/19 05:53:08;;;;;;;0.00;0.00;;;20.00;99.90;226.50;231333.00;;;;5093077;28;20284;-70
2022/07/19 05:55:38;;;;;;;0.00;0.00;;;20.10;99.90;226.50;231333.00;;;;5094660;28;20263;-70
2022/07/19 05:58:08;;;;;;;0.00;0.00;;;20.20;99.90;226.50;231333.00;;;;5094603;28;20201;-71
2022/07/19 06:00:36;;;;;;;0.00;0.00;;;20.30;99.90;226.50;231333.00;;;;5094859;28;20215;-71
2022/07/19 06:03:04;;;;;;;0.00;0.00;;;20.50;99.90;226.50;231333.00;;;;5094764;28;20248;-71
2022/07/19 06:05:33;;;;;;;0.00;0.00;;;20.60;99.90;226.50;231333.00;;;;5094460;28;20271;-71
2022/07/19 06:08:01;;;;;;;0.00;0.00;;;20.70;99.90;226.50;231333.00;;;;5094239;28;20185;-70
2022/07/19 06:10:29;;;;;;;0.00;0.00;;;20.80;99.90;226.50;231333.00;;;;5094479;28;20575;-71
2022/07/19 06:12:58;;;;;;;0.00;0.00;;;20.90;99.90;226.50;231333.00;;;;5094464;28;20208;-70
2022/07/19 06:15:27;;;;;;;0.00;0.00;;;21.10;99.90;226.50;231333.00;;;;5077084;28;20212;-71
2022/07/19 06:17:55;;;;;;;0.00;0.00;;;21.20;99.90;226.50;231333.00;;;;5075797;28;20202;-70
2022/07/19 06:20:23;;;;;;;0.00;0.00;;;21.30;99.90;226.50;231333.00;;;;5075811;28;20236;-71
2022/07/19 06:22:51;;;;;;;0.00;0.00;;;21.40;99.90;226.50;231333.00;;;;5092590;28;20225;-70
2022/07/19 06:25:19;;;;;;;0.00;0.00;;;21.60;99.90;226.50;231333.00;;;;5093087;28;20204;-70
2022/07/19 06:27:47;;;;;;;0.00;0.00;;;21.70;99.90;226.50;231333.00;;;;5093971;28;20201;-69
2022/07/19 06:30:16;;;;;;;0.00;0.00;;;21.80;99.90;226.50;231333.00;;;;5077001;28;20209;-69
2022/07/19 06:32:44;;;;;;;0.00;0.00;;;22.00;99.90;226.50;231333.00;;;;5094686;28;20208;-70
2022/07/19 06:35:12;;;;;;;0.00;0.00;;;22.20;99.50;226.50;231333.00;;;;5095763;28;20243;-70
2022/07/19 06:37:40;;;;;;;0.00;0.00;;;22.50;98.80;226.50;231333.00;;;;5094093;28;20193;-70
2022/07/19 06:40:10;;;;;;;0.00;0.00;;;22.60;98.50;226.50;231333.00;;;;5095712;28;20215;-70
2022/07/19 06:42:38;;;;;;;0.00;0.00;;;22.90;97.90;226.50;231333.00;;;;5095347;28;20219;-70
2022/07/19 06:45:07;;;;;;;0.00;0.00;;;23.10;97.60;226.50;231333.00;;;;5096074;28;20190;-70
2022/07/19 06:47:37;;;;;;;0.00;0.00;;;23.10;97.40;226.50;231333.00;;;;5096400;28;20193;-70
2022/07/19 06:50:06;;;;;;;0.00;0.00;;;23.30;97.00;226.50;231333.00;;;;5111792;28;20239;-70
2022/07/19 06:52:54;;;;;;;0.00;0.00;;;23.50;97.20;226.50;231333.00;;;;5096236;28;20247;-70
2022/07/19 06:55:24;;;;;;;0.00;0.00;;;23.70;96.70;226.50;231333.00;;;;5076994;28;20203;-70
2022/07/19 06:57:52;;;;;;;0.00;0.00;;;23.90;96.20;226.50;231333.00;;;;5095035;28;20267;-70
2022/07/19 07:00:20;;;;;;;0.00;0.00;;;24.10;95.50;226.50;231333.00;;;;5094614;28;20254;-71
2022/07/19 07:02:49;;;;;;;0.00;0.00;;;24.20;95.60;226.50;231333.00;;;;5094515;28;20217;-70
2022/07/19 07:05:18;;;;;;;0.00;0.00;;;24.40;95.20;226.50;231333.00;;;;5094756;28;20657;-70
2022/07/19 07:07:47;;;;;;;0.00;0.00;;;24.50;95.10;226.50;231333.00;;;;5093168;28;20199;-70
2022/07/19 07:10:15;;;;;;;0.00;0.00;;;24.80;94.50;226.50;231333.00;;;;5093209;28;20216;-70
2022/07/19 07:12:43;;;;;;;0.00;0.00;;;24.90;94.30;226.50;231333.00;;;;5093883;28;20284;-70
2022/07/19 07:15:12;;;;;;;0.00;0.00;;;25.20;93.90;226.50;231333.00;;;;5095301;28;20204;-70
2022/07/19 07:17:41;;;;;;;0.00;0.00;;;25.30;93.50;226.50;231333.00;;;;5075641;28;20546;-71
2022/07/19 07:20:12;;;;;;;0.00;0.00;;;25.40;93.60;226.50;231333.00;;;;5093667;28;20216;-70
2022/07/19 07:22:40;;;;;;;0.00;0.00;;;25.70;93.10;226.50;231333.00;;;;5092957;28;20421;-70
2022/07/19 07:25:09;;;;;;;0.00;0.00;;;25.90;92.60;226.50;231333.00;;;;5092878;28;20185;-70
2022/07/19 07:27:38;;;;;;;0.00;0.00;;;26.20;92.30;226.50;231333.00;;;;5089649;28;20196;-70
2022/07/19 07:30:08;;;;;;;0.00;0.00;;;26.30;91.90;226.50;231333.00;;;;5082651;28;20310;-72
2022/07/19 07:32:36;;;;;;;0.00;0.00;;;26.40;92.00;226.50;231333.00;;;;5072353;28;20205;-72
2022/07/19 07:35:05;;;;;;;0.00;0.00;;;26.70;91.30;226.50;231333.00;;;;5074342;28;20196;-70
2022/07/19 07:37:34;;;;;;;0.00;0.00;;;26.80;91.30;226.50;231333.00;;;;5074755;28;20204;-70
2022/07/19 07:40:04;;;;;;;0.00;0.00;;;27.00;90.80;226.50;231333.00;;;;5086256;28;20583;-71
2022/07/19 07:42:32;;;;;;;0.00;0.00;;;27.20;90.30;226.50;231333.00;;;;5093167;28;20217;-71
2022/07/19 07:45:01;;;;;;;0.00;0.00;;;27.30;90.20;226.50;231333.00;;;;5074364;28;20657;-72
2022/07/19 07:47:29;;;;;;;0.00;0.00;;;27.50;90.10;226.50;231333.00;;;;5072061;28;20190;-71
2022/07/19 07:49:57;;;;;;;0.00;0.00;;;27.60;89.00;226.50;231333.00;;;;5072037;28;20217;-71
2022/07/19 07:52:25;;;;;;;0.00;0.00;;;27.70;88.50;226.50;231333.00;;;;5071705;28;20198;-71
2022/07/19 07:54:55;;;;;;;0.00;0.00;;;27.90;87.50;226.50;231333.00;;;;5072312;28;20198;-71
2022/07/19 07:57:43;;;;;;;0.00;0.00;;;28.10;86.40;226.50;231333.00;;;;5070988;28;20236;-71
2022/07/19 08:00:15;;;;;;;0.00;0.00;;;28.40;85.50;226.50;231333.00;;;;5071437;28;20224;-71
2022/07/19 08:02:49;;;;;;;0.00;0.00;;;28.60;85.10;226.50;231333.00;;;;5072372;28;20550;-72
2022/07/19 08:05:22;;;;;;;0.00;0.00;;;28.80;84.60;226.50;231333.00;;;;5072537;28;20194;-72
2022/07/19 08:07:50;;;;;;;0.00;0.00;;;29.00;83.00;226.50;231333.00;;;;5071692;28;20687;-70
2022/07/19 08:10:24;;;;;;;0.00;0.00;;;29.10;82.70;226.50;231333.00;;;;5072013;28;20214;-70
2022/07/19 08:12:52;;;;;;;0.00;0.00;;;29.30;81.90;226.50;231333.00;;;;5071699;28;20204;-70
2022/07/19 08:15:21;;;;;;;0.00;0.00;;;29.40;82.10;226.50;231333.00;;;;5072450;28;20204;-71
2022/07/19 08:17:50;;;;;;;0.00;0.00;;;29.60;82.00;226.50;231333.00;;;;5071802;28;20200;-71
2022/07/19 08:20:18;;;;;;;0.00;0.00;;;29.80;81.00;226.50;231333.00;;;;5072101;28;20210;-71
2022/07/19 08:22:46;;;;;;;0.00;0.00;;;29.90;78.50;226.50;231333.00;;;;5054115;28;20588;-71
2022/07/19 08:25:16;;;;;;;0.00;0.00;;;30.00;78.50;226.50;231333.00;;;;5072616;28;20204;-71
2022/07/19 08:27:46;;;;;;;0.00;0.00;;;30.10;77.40;226.50;231333.00;;;;5072108;28;20213;-71
2022/07/19 08:30:17;;;;;;;0.00;0.00;;;30.30;76.50;226.50;231333.00;;;;5072887;28;20217;-71
2022/07/19 08:32:45;;;;;;;0.00;0.00;;;30.40;77.80;226.50;231333.00;;;;5072527;28;20205;-71
2022/07/19 08:35:13;;;;;;;0.00;0.00;;;30.50;75.10;226.50;231333.00;;;;5073206;28;20567;-71
2022/07/19 08:37:41;;;;;;;0.00;0.00;;;30.60;75.30;226.50;231333.00;;;;5072293;28;20272;-71
2022/07/19 08:40:10;;;;;;;0.00;0.00;;;30.70;74.40;226.50;231333.00;;;;5073181;28;20303;-71
2022/07/19 08:42:39;;;;;;;0.00;0.00;;;30.80;75.10;226.50;231333.00;;;;5078408;28;20245;-71
2022/07/19 08:45:11;;;;;;;0.00;0.00;;;30.90;74.60;226.50;231333.00;;;;5074135;28;20193;-71
2022/07/19 08:47:42;;;;;;;0.00;0.00;;;31.00;71.90;226.50;231333.00;;;;5092713;28;20193;-72
2022/07/19 08:50:12;;;;;;;0.00;0.00;;;31.00;70.70;226.50;231333.00;;;;5086908;28;20239;-71
2022/07/19 08:52:40;;;;;;;0.00;0.00;;;31.20;70.00;226.50;231333.00;;;;5073294;28;20573;-71
2022/07/19 08:55:09;;;;;;;0.00;0.00;;;31.40;68.00;226.50;231333.00;;;;5072385;28;20190;-71
2022/07/19 09:00:26;;;;;;;0.00;0.00;;;31.50;68.00;226.50;231333.00;;;;5071520;28;20209;-71
2022/07/19 09:02:56;;;;;;;0.00;0.00;;;31.60;66.30;226.50;231333.00;;;;5072993;28;20221;-72
2022/07/19 09:05:25;;;;;;;0.00;0.00;;;31.70;66.50;226.50;231333.00;;;;5075674;28;20232;-72
2022/07/19 09:08:09;;;;;;;0.00;0.00;;;31.70;66.70;226.50;231333.00;;;;5075211;28;20672;-71
2022/07/19 09:10:40;;;;;;;0.00;0.00;;;31.90;65.90;226.50;231333.00;;;;5075702;28;20219;-73
2022/07/19 09:13:11;;;;;;;0.00;0.00;;;32.00;65.10;226.50;231333.00;;;;5057322;28;20572;-71
2022/07/19 09:15:50;;;;;;;0.00;0.00;;;32.10;64.90;226.50;231333.00;;;;5075943;28;20193;-72
2022/07/19 09:18:21;;;;;;;0.00;0.00;;;32.20;62.70;226.50;231333.00;;;;5075910;28;20680;-71
2022/07/19 09:20:53;;;;;;;0.00;0.00;;;32.20;62.80;226.50;231333.00;;;;5075541;28;20221;-72
2022/07/19 09:23:22;;;;;;;0.00;0.00;;;32.10;62.20;226.50;231333.00;;;;5075363;28;20217;-71
2022/07/19 09:25:53;;;;;;;0.00;0.00;;;32.10;62.90;226.50;231333.00;;;;5075051;28;20201;-72
2022/07/19 09:28:23;;;;;;;0.00;0.00;;;32.30;61.40;226.50;231333.00;;;;5057357;28;20197;-72
2022/07/19 09:30:55;;;;;;;0.00;0.00;;;32.30;61.30;226.50;231333.00;;;;5057185;28;20315;-71
2022/07/19 09:33:27;;;;;;;0.00;0.00;;;32.50;60.50;226.50;231333.00;;;;5075122;28;20193;-72
2022/07/19 09:35:59;;;;;;;0.00;0.00;;;32.30;60.40;226.50;231333.00;;;;5076279;28;20212;-71
2022/07/19 09:38:30;;;;;;;0.00;0.00;;;32.50;60.70;226.50;231333.00;;;;5078272;28;20189;-73
2022/07/19 09:41:10;;;;;;;0.00;0.00;;;32.50;60.30;226.50;231333.00;;;;5083827;28;20224;-72
2022/07/19 09:43:56;;;;;;;0.00;0.00;;;32.10;59.70;226.50;231333.00;;;;5074479;28;20223;-72
2022/07/19 09:46:31;;;;;;;0.00;0.00;;;31.90;59.50;226.50;231333.00;;;;5075954;28;20200;-72
2022/07/19 09:49:06;;;;;;;0.00;0.00;;;32.00;60.90;226.50;231333.00;;;;5094408;28;20385;-72
2022/07/19 09:51:37;;;;;;;0.00;0.00;;;32.30;61.10;226.50;231333.00;;;;5094662;28;20189;-72
2022/07/19 09:54:08;;;;;;;0.00;0.00;;;32.70;60.30;226.50;231333.00;;;;5095105;28;20196;-72
2022/07/19 09:56:38;;;;;;;0.00;0.00;;;33.00;60.00;226.50;231333.00;;;;5094734;28;20203;-73
2022/07/19 09:59:07;;;;;;;0.00;0.00;;;33.10;59.40;226.50;231333.00;;;;5094476;28;20216;-72
2022/07/19 10:01:38;;;;;;;0.00;0.00;;;33.30;59.50;226.50;231333.00;;;;5094369;28;20682;-72
2022/07/19 10:04:09;;;;;;;0.00;0.00;;;33.40;57.90;226.50;231333.00;;;;5094578;28;20216;-72
2022/07/19 10:06:39;;;;;;;0.00;0.00;;;33.50;58.00;226.50;231333.00;;;;5094488;28;20560;-72
2022/07/19 10:09:10;;;;;;;0.00;0.00;;;33.70;56.70;226.50;231333.00;;;;5093973;28;20212;-72
2022/07/19 10:11:39;;;;;;;0.00;0.00;;;33.70;57.10;226.50;231333.00;;;;5094301;28;20648;-72
2022/07/19 10:14:08;;;;;;;0.00;0.00;;;33.70;56.30;226.50;231333.00;;;;5109554;28;20200;-72
2022/07/19 10:16:56;;;;;;;0.00;0.00;;;33.80;56.00;226.50;231333.00;;;;5093776;28;20189;-73
2022/07/19 10:19:36;;;;;;;0.00;0.00;;;33.50;55.50;226.50;231333.00;;;;5094891;28;20219;-72
2022/07/19 10:22:11;;;;;;;0.00;0.00;;;33.40;55.50;226.50;231333.00;;;;5094768;28;20212;-73
2022/07/19 10:24:51;;;;;;;0.00;0.00;;;33.50;55.70;226.50;231333.00;;;;5093992;28;20220;-72
2022/07/19 10:27:37;;;;;;;0.00;0.00;;;33.60;55.70;226.50;231333.00;;;;5094018;28;20686;-71
2022/07/19 10:30:26;;;;;;;0.00;0.00;;;33.60;54.90;226.50;231333.00;;;;5094391;28;20212;-71
2022/07/19 10:32:57;;;;;;;0.00;0.00;;;33.50;54.20;226.50;231333.00;;;;5094307;28;20674;-71
2022/07/19 10:35:31;;;;;;;0.00;0.00;;;33.50;55.20;226.50;231333.00;;;;5093848;28;20193;-72
2022/07/19 10:38:10;;;;;;;0.00;0.00;;;33.70;54.90;226.50;231333.00;;;;5093527;28;20279;-71
2022/07/19 10:40:44;;;;;;;0.00;0.00;;;33.80;54.30;226.50;231333.00;;;;5093648;28;20212;-71
2022/07/19 10:43:16;;;;;;;0.00;0.00;;;34.10;54.80;226.50;231333.00;;;;5092676;28;20200;-72
2022/07/19 10:46:08;;;;;;;0.00;0.00;;;34.40;54.30;226.50;231333.00;;;;5093582;28;20211;-72
2022/07/19 10:48:40;;;;;;;0.00;0.00;;;34.70;54.10;226.50;231333.00;;;;5093218;28;20199;-72
2022/07/19 10:51:12;;;;;;;0.00;0.00;;;34.90;53.10;226.50;231333.00;;;;5093833;28;20586;-71
2022/07/19 10:54:10;;;;;;;0.00;0.00;;;34.90;53.30;226.50;231333.00;;;;5093402;28;20601;-72